Terminal Aerodrome Forecast
Issued by NWS Wilmington, OH

Current Version | Previous Version | Text Only | Print | Product List | Glossary Off
Versions: 1 2 3 4 5 6 7 8 9 10 11 12 13 14 15 16 17 18 19 20 21

000
FTUS41 KILN 131100
TAFDAY
TAF
KDAY 131124Z 1312/1412 33009KT P6SM OVC010
      TEMPO 1312/1313 4SM BR BKN008 OVC020
     FM131400 31011KT P6SM FEW030
     FM132300 02004KT P6SM SKC=

USA.gov is the U.S. government's official web portal to all federal, state and local government web resources and services.